sensor_id;sensor_type;location;lat;lon;timestamp;temperature;humidity
39099;DHT22;24844;52.380;7.018;2023-08-07T00:02:25;15.30;99.90
39099;DHT22;24844;52.380;7.018;2023-08-07T00:04:50;15.20;99.90
39099;DHT22;24844;52.380;7.018;2023-08-07T00:07:16;15.30;99.90
39099;DHT22;24844;52.380;7.018;2023-08-07T00:09:41;15.30;99.90
39099;DHT22;24844;52.380;7.018;2023-08-07T00:12:07;15.30;99.90
39099;DHT22;24844;52.380;7.018;2023-08-07T00:14:32;15.30;99.90
39099;DHT22;24844;52.380;7.018;2023-08-07T00:16:58;15.20;99.90
39099;DHT22;24844;52.380;7.018;2023-08-07T00:19:24;15.30;99.90
39099;DHT22;24844;52.380;7.018;2023-08-07T00:21:49;15.30;99.90
39099;DHT22;24844;52.380;7.018;2023-08-07T00:24:15;15.20;99.90
39099;DHT22;24844;52.380;7.018;2023-08-07T00:26:40;15.20;99.90
39099;DHT22;24844;52.380;7.018;2023-08-07T00:29:06;15.20;99.90
39099;DHT22;24844;52.380;7.018;2023-08-07T00:31:31;15.20;99.90
39099;DHT22;24844;52.380;7.018;2023-08-07T00:33:58;15.20;99.90
39099;DHT22;24844;52.380;7.018;2023-08-07T00:36:23;15.10;99.90
39099;DHT22;24844;52.380;7.018;2023-08-07T00:38:50;15.10;99.90
39099;DHT22;24844;52.380;7.018;2023-08-07T00:41:16;15.10;99.90
39099;DHT22;24844;52.380;7.018;2023-08-07T00:43:42;15.00;99.90
39099;DHT22;24844;52.380;7.018;2023-08-07T00:46:08;15.00;99.90
39099;DHT22;24844;52.380;7.018;2023-08-07T00:48:33;15.00;99.90
39099;DHT22;24844;52.380;7.018;2023-08-07T00:50:59;15.00;99.90
39099;DHT22;24844;52.380;7.018;2023-08-07T00:53:25;15.10;99.90
39099;DHT22;24844;52.380;7.018;2023-08-07T00:55:51;15.00;99.90
39099;DHT22;24844;52.380;7.018;2023-08-07T00:58:17;15.00;99.90
39099;DHT22;24844;52.380;7.018;2023-08-07T01:00:43;15.00;99.90
39099;DHT22;24844;52.380;7.018;2023-08-07T01:03:11;14.90;99.90
39099;DHT22;24844;52.380;7.018;2023-08-07T01:05:37;15.00;99.90
39099;DHT22;24844;52.380;7.018;2023-08-07T01:08:03;15.00;99.90
39099;DHT22;24844;52.380;7.018;2023-08-07T01:10:51;15.00;99.90
39099;DHT22;24844;52.380;7.018;2023-08-07T01:16:48;15.10;99.90
39099;DHT22;24844;52.380;7.018;2023-08-07T01:19:34;15.00;99.90
39099;DHT22;24844;52.380;7.018;2023-08-07T01:22:11;15.00;99.90
39099;DHT22;24844;52.380;7.018;2023-08-07T01:24:38;15.10;99.90
39099;DHT22;24844;52.380;7.018;2023-08-07T01:32:11;15.10;99.90
39099;DHT22;24844;52.380;7.018;2023-08-07T01:34:41;15.10;99.90
39099;DHT22;24844;52.380;7.018;2023-08-07T01:37:09;15.10;99.90
39099;DHT22;24844;52.380;7.018;2023-08-07T01:39:36;15.10;99.90
39099;DHT22;24844;52.380;7.018;2023-08-07T01:42:03;15.10;99.90
39099;DHT22;24844;52.380;7.018;2023-08-07T01:44:30;15.10;99.90
39099;DHT22;24844;52.380;7.018;2023-08-07T01:46:56;15.00;99.90
39099;DHT22;24844;52.380;7.018;2023-08-07T01:49:21;15.00;99.90
39099;DHT22;24844;52.380;7.018;2023-08-07T01:51:47;15.10;99.90
39099;DHT22;24844;52.380;7.018;2023-08-07T01:54:12;15.20;99.90
39099;DHT22;24844;52.380;7.018;2023-08-07T01:56:38;15.10;99.90
39099;DHT22;24844;52.380;7.018;2023-08-07T01:59:04;15.00;99.90
39099;DHT22;24844;52.380;7.018;2023-08-07T02:01:29;15.00;99.90
39099;DHT22;24844;52.380;7.018;2023-08-07T02:03:55;15.10;99.90
39099;DHT22;24844;52.380;7.018;2023-08-07T02:06:21;15.10;99.90
39099;DHT22;24844;52.380;7.018;2023-08-07T02:08:47;15.10;99.90
39099;DHT22;24844;52.380;7.018;2023-08-07T02:11:12;15.10;99.90
39099;DHT22;24844;52.380;7.018;2023-08-07T02:13:38;15.10;99.90
39099;DHT22;24844;52.380;7.018;2023-08-07T02:16:03;15.10;99.90
39099;DHT22;24844;52.380;7.018;2023-08-07T02:18:29;15.20;99.90
39099;DHT22;24844;52.380;7.018;2023-08-07T02:20:55;15.10;99.90
39099;DHT22;24844;52.380;7.018;2023-08-07T02:23:20;15.10;99.90
39099;DHT22;24844;52.380;7.018;2023-08-07T02:25:46;15.00;99.90
39099;DHT22;24844;52.380;7.018;2023-08-07T02:28:11;15.20;99.90
39099;DHT22;24844;52.380;7.018;2023-08-07T02:30:37;15.20;99.90
39099;DHT22;24844;52.380;7.018;2023-08-07T02:33:03;15.10;99.90
39099;DHT22;24844;52.380;7.018;2023-08-07T02:35:29;15.10;99.90
39099;DHT22;24844;52.380;7.018;2023-08-07T02:37:54;15.20;99.90
39099;DHT22;24844;52.380;7.018;2023-08-07T02:40:20;15.10;99.90
39099;DHT22;24844;52.380;7.018;2023-08-07T02:42:45;15.10;99.90
39099;DHT22;24844;52.380;7.018;2023-08-07T02:45:11;15.00;99.90
39099;DHT22;24844;52.380;7.018;2023-08-07T02:47:37;14.90;99.90
39099;DHT22;24844;52.380;7.018;2023-08-07T02:50:02;14.80;99.90
39099;DHT22;24844;52.380;7.018;2023-08-07T02:52:28;14.90;99.90
39099;DHT22;24844;52.380;7.018;2023-08-07T02:54:53;14.90;99.90
39099;DHT22;24844;52.380;7.018;2023-08-07T02:57:19;15.00;99.90
39099;DHT22;24844;52.380;7.018;2023-08-07T02:59:44;15.00;99.90
39099;DHT22;24844;52.380;7.018;2023-08-07T03:02:10;15.00;99.90
39099;DHT22;24844;52.380;7.018;2023-08-07T03:04:36;15.00;99.90
39099;DHT22;24844;52.380;7.018;2023-08-07T03:07:01;15.00;99.90
39099;DHT22;24844;52.380;7.018;2023-08-07T03:09:27;15.00;99.90
39099;DHT22;24844;52.380;7.018;2023-08-07T03:11:53;15.00;99.90
39099;DHT22;24844;52.380;7.018;2023-08-07T03:14:19;14.90;99.90
39099;DHT22;24844;52.380;7.018;2023-08-07T03:16:45;15.00;99.90
39099;DHT22;24844;52.380;7.018;2023-08-07T03:19:11;14.90;99.90
39099;DHT22;24844;52.380;7.018;2023-08-07T03:21:37;15.00;99.90
39099;DHT22;24844;52.380;7.018;2023-08-07T03:24:02;15.00;99.90
39099;DHT22;24844;52.380;7.018;2023-08-07T03:26:28;14.90;99.90
39099;DHT22;24844;52.380;7.018;2023-08-07T03:28:53;14.90;99.90
39099;DHT22;24844;52.380;7.018;2023-08-07T03:31:19;14.90;99.90
39099;DHT22;24844;52.380;7.018;2023-08-07T03:33:45;15.00;99.90
39099;DHT22;24844;52.380;7.018;2023-08-07T03:36:10;15.00;99.90
39099;DHT22;24844;52.380;7.018;2023-08-07T03:38:36;15.00;99.90
39099;DHT22;24844;52.380;7.018;2023-08-07T03:41:02;14.90;99.90
39099;DHT22;24844;52.380;7.018;2023-08-07T03:43:27;15.00;99.90
39099;DHT22;24844;52.380;7.018;2023-08-07T03:45:56;15.00;99.90
39099;DHT22;24844;52.380;7.018;2023-08-07T03:48:24;15.00;99.90
39099;DHT22;24844;52.380;7.018;2023-08-07T03:50:50;15.00;99.90
39099;DHT22;24844;52.380;7.018;2023-08-07T03:53:16;14.90;99.90
39099;DHT22;24844;52.380;7.018;2023-08-07T03:55:41;14.90;99.90
39099;DHT22;24844;52.380;7.018;2023-08-07T03:58:08;15.00;99.90
39099;DHT22;24844;52.380;7.018;2023-08-07T04:00:33;14.90;99.90
39099;DHT22;24844;52.380;7.018;2023-08-07T04:02:59;14.90;99.90
39099;DHT22;24844;52.380;7.018;2023-08-07T04:05:25;14.90;99.90
39099;DHT22;24844;52.380;7.018;2023-08-07T04:07:50;15.00;99.90
39099;DHT22;24844;52.380;7.018;2023-08-07T04:10:16;14.90;99.90
39099;DHT22;24844;52.380;7.018;2023-08-07T04:12:41;14.80;99.90
39099;DHT22;24844;52.380;7.018;2023-08-07T04:15:08;14.80;99.90
39099;DHT22;24844;52.380;7.018;2023-08-07T04:17:35;14.80;99.90
39099;DHT22;24844;52.380;7.018;2023-08-07T04:20:00;14.80;99.90
39099;DHT22;24844;52.380;7.018;2023-08-07T04:22:26;14.90;99.90
39099;DHT22;24844;52.380;7.018;2023-08-07T04:24:52;15.00;99.90
39099;DHT22;24844;52.380;7.018;2023-08-07T04:27:17;14.80;99.90
39099;DHT22;24844;52.380;7.018;2023-08-07T04:29:43;14.80;99.90
39099;DHT22;24844;52.380;7.018;2023-08-07T04:32:08;14.90;99.90
39099;DHT22;24844;52.380;7.018;2023-08-07T04:34:34;14.80;99.90
39099;DHT22;24844;52.380;7.018;2023-08-07T04:37:00;14.80;99.90
39099;DHT22;24844;52.380;7.018;2023-08-07T04:39:26;14.90;99.90
39099;DHT22;24844;52.380;7.018;2023-08-07T04:41:52;15.10;99.90
39099;DHT22;24844;52.380;7.018;2023-08-07T04:44:17;15.00;99.90
39099;DHT22;24844;52.380;7.018;2023-08-07T04:46:43;15.00;99.90
39099;DHT22;24844;52.380;7.018;2023-08-07T04:49:08;15.00;99.90
39099;DHT22;24844;52.380;7.018;2023-08-07T04:51:34;15.10;99.90
39099;DHT22;24844;52.380;7.018;2023-08-07T04:53:59;15.00;99.90
39099;DHT22;24844;52.380;7.018;2023-08-07T04:56:25;15.20;99.90
39099;DHT22;24844;52.380;7.018;2023-08-07T04:58:51;15.20;99.90
39099;DHT22;24844;52.380;7.018;2023-08-07T05:01:16;15.20;99.90
39099;DHT22;24844;52.380;7.018;2023-08-07T05:03:42;15.20;99.90
39099;DHT22;24844;52.380;7.018;2023-08-07T05:06:07;15.40;99.90
39099;DHT22;24844;52.380;7.018;2023-08-07T05:08:33;15.30;99.90
39099;DHT22;24844;52.380;7.018;2023-08-07T05:10:59;15.50;99.90
39099;DHT22;24844;52.380;7.018;2023-08-07T05:13:24;15.60;99.90
39099;DHT22;24844;52.380;7.018;2023-08-07T05:15:50;15.60;99.90
39099;DHT22;24844;52.380;7.018;2023-08-07T05:18:16;15.70;99.90
39099;DHT22;24844;52.380;7.018;2023-08-07T05:20:42;15.70;99.90
39099;DHT22;24844;52.380;7.018;2023-08-07T05:23:08;15.70;99.90
39099;DHT22;24844;52.380;7.018;2023-08-07T05:25:34;15.60;99.90
39099;DHT22;24844;52.380;7.018;2023-08-07T05:27:59;15.40;99.90
39099;DHT22;24844;52.380;7.018;2023-08-07T05:30:25;15.50;99.90
39099;DHT22;24844;52.380;7.018;2023-08-07T05:32:50;15.40;99.90
39099;DHT22;24844;52.380;7.018;2023-08-07T05:35:16;15.50;99.90
39099;DHT22;24844;52.380;7.018;2023-08-07T05:37:41;15.60;99.90
39099;DHT22;24844;52.380;7.018;2023-08-07T05:40:07;15.70;99.90
39099;DHT22;24844;52.380;7.018;2023-08-07T05:42:33;15.60;99.90
39099;DHT22;24844;52.380;7.018;2023-08-07T05:45:00;15.50;99.90
39099;DHT22;24844;52.380;7.018;2023-08-07T05:47:25;15.70;99.90
39099;DHT22;24844;52.380;7.018;2023-08-07T05:49:51;15.70;99.90
39099;DHT22;24844;52.380;7.018;2023-08-07T05:52:17;15.50;99.90
39099;DHT22;24844;52.380;7.018;2023-08-07T05:54:43;15.50;99.90
39099;DHT22;24844;52.380;7.018;2023-08-07T05:57:09;15.50;99.90
39099;DHT22;24844;52.380;7.018;2023-08-07T05:59:35;15.60;99.90
39099;DHT22;24844;52.380;7.018;2023-08-07T06:02:01;15.60;99.90
39099;DHT22;24844;52.380;7.018;2023-08-07T06:04:27;15.70;99.90
39099;DHT22;24844;52.380;7.018;2023-08-07T06:06:53;15.60;99.90
39099;DHT22;24844;52.380;7.018;2023-08-07T06:09:18;15.60;99.90
39099;DHT22;24844;52.380;7.018;2023-08-07T06:11:45;15.50;99.90
39099;DHT22;24844;52.380;7.018;2023-08-07T06:14:11;15.60;99.90
39099;DHT22;24844;52.380;7.018;2023-08-07T06:16:36;15.60;99.90
39099;DHT22;24844;52.380;7.018;2023-08-07T06:19:02;15.70;99.90
39099;DHT22;24844;52.380;7.018;2023-08-07T06:21:29;15.80;99.90
39099;DHT22;24844;52.380;7.018;2023-08-07T06:23:54;15.80;99.90
39099;DHT22;24844;52.380;7.018;2023-08-07T06:26:20;15.80;99.90
39099;DHT22;24844;52.380;7.018;2023-08-07T06:28:45;15.70;99.90
39099;DHT22;24844;52.380;7.018;2023-08-07T06:31:12;15.80;99.90
39099;DHT22;24844;52.380;7.018;2023-08-07T06:33:38;15.80;99.90
39099;DHT22;24844;52.380;7.018;2023-08-07T06:36:04;15.90;99.90
39099;DHT22;24844;52.380;7.018;2023-08-07T06:38:30;15.80;99.90
39099;DHT22;24844;52.380;7.018;2023-08-07T06:40:56;15.90;99.90
39099;DHT22;24844;52.380;7.018;2023-08-07T06:43:21;16.00;99.90
39099;DHT22;24844;52.380;7.018;2023-08-07T06:45:49;16.00;99.90
39099;DHT22;24844;52.380;7.018;2023-08-07T06:48:15;15.80;99.90
39099;DHT22;24844;52.380;7.018;2023-08-07T06:50:40;15.80;99.90
39099;DHT22;24844;52.380;7.018;2023-08-07T06:53:06;15.90;99.90
39099;DHT22;24844;52.380;7.018;2023-08-07T06:55:32;15.70;99.90
39099;DHT22;24844;52.380;7.018;2023-08-07T06:57:58;15.70;99.90
39099;DHT22;24844;52.380;7.018;2023-08-07T07:00:24;15.60;99.90
39099;DHT22;24844;52.380;7.018;2023-08-07T07:02:50;15.70;99.90
39099;DHT22;24844;52.380;7.018;2023-08-07T07:05:15;15.90;99.90
39099;DHT22;24844;52.380;7.018;2023-08-07T07:07:41;16.00;99.90
39099;DHT22;24844;52.380;7.018;2023-08-07T07:10:07;16.10;99.90
39099;DHT22;24844;52.380;7.018;2023-08-07T07:12:33;16.00;99.90
39099;DHT22;24844;52.380;7.018;2023-08-07T07:14:59;16.30;99.90
39099;DHT22;24844;52.380;7.018;2023-08-07T07:17:24;16.40;99.90
39099;DHT22;24844;52.380;7.018;2023-08-07T07:19:50;16.50;99.90
39099;DHT22;24844;52.380;7.018;2023-08-07T07:22:15;16.60;99.90
39099;DHT22;24844;52.380;7.018;2023-08-07T07:24:41;17.10;99.90
39099;DHT22;24844;52.380;7.018;2023-08-07T07:27:06;17.20;99.90
39099;DHT22;24844;52.380;7.018;2023-08-07T07:29:32;17.30;99.90
39099;DHT22;24844;52.380;7.018;2023-08-07T07:31:58;18.00;99.90
39099;DHT22;24844;52.380;7.018;2023-08-07T07:34:23;18.60;99.90
39099;DHT22;24844;52.380;7.018;2023-08-07T07:36:49;18.40;99.90
39099;DHT22;24844;52.380;7.018;2023-08-07T07:39:15;18.00;99.90
39099;DHT22;24844;52.380;7.018;2023-08-07T07:41:40;17.80;99.90
39099;DHT22;24844;52.380;7.018;2023-08-07T07:44:06;17.50;99.90
39099;DHT22;24844;52.380;7.018;2023-08-07T07:46:31;17.20;99.90
39099;DHT22;24844;52.380;7.018;2023-08-07T07:48:58;16.70;99.90
39099;DHT22;24844;52.380;7.018;2023-08-07T07:51:24;16.40;99.90
39099;DHT22;24844;52.380;7.018;2023-08-07T07:53:50;16.60;99.90
39099;DHT22;24844;52.380;7.018;2023-08-07T07:56:16;16.30;99.90
39099;DHT22;24844;52.380;7.018;2023-08-07T07:58:41;16.30;99.90
39099;DHT22;24844;52.380;7.018;2023-08-07T08:01:07;16.10;99.90
39099;DHT22;24844;52.380;7.018;2023-08-07T08:03:33;16.70;99.90
39099;DHT22;24844;52.380;7.018;2023-08-07T08:05:59;16.60;99.90
39099;DHT22;24844;52.380;7.018;2023-08-07T08:08:25;17.00;99.90
39099;DHT22;24844;52.380;7.018;2023-08-07T08:10:51;18.10;99.90
39099;DHT22;24844;52.380;7.018;2023-08-07T08:13:17;19.30;99.90
39099;DHT22;24844;52.380;7.018;2023-08-07T08:15:43;20.50;99.90
39099;DHT22;24844;52.380;7.018;2023-08-07T08:18:08;21.10;99.90
39099;DHT22;24844;52.380;7.018;2023-08-07T08:20:34;21.00;99.90
39099;DHT22;24844;52.380;7.018;2023-08-07T08:23:00;21.50;99.90
39099;DHT22;24844;52.380;7.018;2023-08-07T08:25:25;21.60;99.90
39099;DHT22;24844;52.380;7.018;2023-08-07T08:27:51;22.10;99.90
39099;DHT22;24844;52.380;7.018;2023-08-07T08:30:17;22.70;99.90
39099;DHT22;24844;52.380;7.018;2023-08-07T08:32:43;22.40;99.90
39099;DHT22;24844;52.380;7.018;2023-08-07T08:35:09;21.80;99.90
39099;DHT22;24844;52.380;7.018;2023-08-07T08:37:35;21.90;99.90
39099;DHT22;24844;52.380;7.018;2023-08-07T08:40:00;21.40;99.90
39099;DHT22;24844;52.380;7.018;2023-08-07T08:42:27;21.70;99.90
39099;DHT22;24844;52.380;7.018;2023-08-07T08:44:56;22.20;99.90
39099;DHT22;24844;52.380;7.018;2023-08-07T08:47:23;21.20;99.90
39099;DHT22;24844;52.380;7.018;2023-08-07T08:50:04;20.70;99.90
39099;DHT22;24844;52.380;7.018;2023-08-07T08:52:32;20.50;99.90
39099;DHT22;24844;52.380;7.018;2023-08-07T08:54:58;20.20;99.90
39099;DHT22;24844;52.380;7.018;2023-08-07T08:57:28;19.90;99.90
39099;DHT22;24844;52.380;7.018;2023-08-07T08:59:56;20.00;99.90
39099;DHT22;24844;52.380;7.018;2023-08-07T09:02:22;20.20;99.90
39099;DHT22;24844;52.380;7.018;2023-08-07T09:04:48;20.60;99.90
39099;DHT22;24844;52.380;7.018;2023-08-07T09:07:15;20.90;99.90
39099;DHT22;24844;52.380;7.018;2023-08-07T09:09:42;21.90;99.90
39099;DHT22;24844;52.380;7.018;2023-08-07T09:12:14;22.20;99.90
39099;DHT22;24844;52.380;7.018;2023-08-07T09:14:41;22.70;99.90
39099;DHT22;24844;52.380;7.018;2023-08-07T09:17:09;22.50;99.90
39099;DHT22;24844;52.380;7.018;2023-08-07T09:19:35;22.70;99.90
39099;DHT22;24844;52.380;7.018;2023-08-07T09:22:01;22.90;99.90
39099;DHT22;24844;52.380;7.018;2023-08-07T09:24:27;23.30;99.90
39099;DHT22;24844;52.380;7.018;2023-08-07T09:26:52;22.60;99.90
39099;DHT22;24844;52.380;7.018;2023-08-07T09:29:20;21.90;99.90
39099;DHT22;24844;52.380;7.018;2023-08-07T09:31:45;20.60;99.90
39099;DHT22;24844;52.380;7.018;2023-08-07T09:34:11;19.50;99.90
39099;DHT22;24844;52.380;7.018;2023-08-07T09:36:39;18.40;99.90
39099;DHT22;24844;52.380;7.018;2023-08-07T09:39:06;18.60;99.90
39099;DHT22;24844;52.380;7.018;2023-08-07T09:41:31;19.50;99.90
39099;DHT22;24844;52.380;7.018;2023-08-07T09:43:58;19.80;99.90
39099;DHT22;24844;52.380;7.018;2023-08-07T09:46:25;19.30;99.90
39099;DHT22;24844;52.380;7.018;2023-08-07T09:48:51;18.40;99.90
39099;DHT22;24844;52.380;7.018;2023-08-07T09:51:16;17.90;99.90
39099;DHT22;24844;52.380;7.018;2023-08-07T09:53:42;16.80;99.90
39099;DHT22;24844;52.380;7.018;2023-08-07T09:56:08;16.10;99.90
39099;DHT22;24844;52.380;7.018;2023-08-07T09:58:34;15.90;99.90
39099;DHT22;24844;52.380;7.018;2023-08-07T10:01:04;15.90;99.90
39099;DHT22;24844;52.380;7.018;2023-08-07T10:03:30;15.50;99.90
39099;DHT22;24844;52.380;7.018;2023-08-07T10:05:57;15.60;99.90
39099;DHT22;24844;52.380;7.018;2023-08-07T10:08:23;15.50;99.90
39099;DHT22;24844;52.380;7.018;2023-08-07T10:10:49;15.30;99.90
39099;DHT22;24844;52.380;7.018;2023-08-07T10:13:15;15.60;99.90
39099;DHT22;24844;52.380;7.018;2023-08-07T10:15:41;15.80;99.90
39099;DHT22;24844;52.380;7.018;2023-08-07T10:18:09;15.90;99.90
39099;DHT22;24844;52.380;7.018;2023-08-07T10:20:36;16.30;99.90
39099;DHT22;24844;52.380;7.018;2023-08-07T10:23:09;17.20;99.90
39099;DHT22;24844;52.380;7.018;2023-08-07T10:25:39;17.70;99.90
39099;DHT22;24844;52.380;7.018;2023-08-07T10:28:07;17.40;99.90
39099;DHT22;24844;52.380;7.018;2023-08-07T10:30:34;17.80;99.90
39099;DHT22;24844;52.380;7.018;2023-08-07T10:33:01;18.10;99.90
39099;DHT22;24844;52.380;7.018;2023-08-07T10:35:31;18.20;99.90
39099;DHT22;24844;52.380;7.018;2023-08-07T10:38:10;18.10;99.90
39099;DHT22;24844;52.380;7.018;2023-08-07T10:43:19;19.20;99.90
39099;DHT22;24844;52.380;7.018;2023-08-07T10:45:45;19.30;99.90
39099;DHT22;24844;52.380;7.018;2023-08-07T10:48:11;18.90;99.90
39099;DHT22;24844;52.380;7.018;2023-08-07T10:50:57;18.30;99.90
39099;DHT22;24844;52.380;7.018;2023-08-07T10:53:34;17.70;99.90
39099;DHT22;24844;52.380;7.018;2023-08-07T10:56:08;17.20;99.90
39099;DHT22;24844;52.380;7.018;2023-08-07T10:58:36;16.80;99.90
39099;DHT22;24844;52.380;7.018;2023-08-07T11:03:50;16.60;99.90
39099;DHT22;24844;52.380;7.018;2023-08-07T11:06:17;16.70;99.90
39099;DHT22;24844;52.380;7.018;2023-08-07T11:08:43;17.00;99.90
39099;DHT22;24844;52.380;7.018;2023-08-07T11:11:09;17.30;99.90
39099;DHT22;24844;52.380;7.018;2023-08-07T11:13:34;17.80;99.90
39099;DHT22;24844;52.380;7.018;2023-08-07T11:16:02;18.00;99.90
39099;DHT22;24844;52.380;7.018;2023-08-07T11:18:28;18.10;99.90
39099;DHT22;24844;52.380;7.018;2023-08-07T11:20:55;17.90;99.90
39099;DHT22;24844;52.380;7.018;2023-08-07T11:23:26;17.80;99.90
39099;DHT22;24844;52.380;7.018;2023-08-07T11:25:53;18.20;99.90
39099;DHT22;24844;52.380;7.018;2023-08-07T11:28:22;18.60;99.90
39099;DHT22;24844;52.380;7.018;2023-08-07T11:30:51;18.80;99.90
39099;DHT22;24844;52.380;7.018;2023-08-07T11:33:18;19.30;99.90
39099;DHT22;24844;52.380;7.018;2023-08-07T11:35:45;19.50;99.90
39099;DHT22;24844;52.380;7.018;2023-08-07T11:38:10;19.50;99.90
39099;DHT22;24844;52.380;7.018;2023-08-07T11:40:36;19.70;99.90
39099;DHT22;24844;52.380;7.018;2023-08-07T11:43:02;19.80;99.90
39099;DHT22;24844;52.380;7.018;2023-08-07T11:45:28;19.80;99.90
39099;DHT22;24844;52.380;7.018;2023-08-07T11:47:54;19.90;99.90
39099;DHT22;24844;52.380;7.018;2023-08-07T11:50:22;19.40;99.90
39099;DHT22;24844;52.380;7.018;2023-08-07T11:52:48;19.30;99.90
39099;DHT22;24844;52.380;7.018;2023-08-07T11:55:17;19.00;99.90
39099;DHT22;24844;52.380;7.018;2023-08-07T11:57:48;18.90;99.90
39099;DHT22;24844;52.380;7.018;2023-08-07T12:00:13;19.00;99.90
39099;DHT22;24844;52.380;7.018;2023-08-07T12:02:43;19.20;99.90
39099;DHT22;24844;52.380;7.018;2023-08-07T12:05:10;19.60;99.90
39099;DHT22;24844;52.380;7.018;2023-08-07T12:07:39;19.70;99.90
39099;DHT22;24844;52.380;7.018;2023-08-07T12:10:09;19.90;99.90
39099;DHT22;24844;52.380;7.018;2023-08-07T12:12:37;19.90;99.90
39099;DHT22;24844;52.380;7.018;2023-08-07T12:15:10;20.20;99.90
39099;DHT22;24844;52.380;7.018;2023-08-07T12:17:36;20.40;99.90
39099;DHT22;24844;52.380;7.018;2023-08-07T12:20:07;20.30;99.90
39099;DHT22;24844;52.380;7.018;2023-08-07T12:22:37;20.40;99.90
39099;DHT22;24844;52.380;7.018;2023-08-07T12:25:03;20.50;99.90
39099;DHT22;24844;52.380;7.018;2023-08-07T12:27:28;20.80;99.90
39099;DHT22;24844;52.380;7.018;2023-08-07T12:29:54;21.20;99.90
39099;DHT22;24844;52.380;7.018;2023-08-07T12:32:19;20.90;99.90
39099;DHT22;24844;52.380;7.018;2023-08-07T12:34:45;20.60;99.90
39099;DHT22;24844;52.380;7.018;2023-08-07T12:37:11;20.60;99.90
39099;DHT22;24844;52.380;7.018;2023-08-07T12:39:36;20.60;99.90
39099;DHT22;24844;52.380;7.018;2023-08-07T12:42:02;20.50;99.90
39099;DHT22;24844;52.380;7.018;2023-08-07T12:44:30;20.30;99.90
39099;DHT22;24844;52.380;7.018;2023-08-07T12:46:57;20.50;99.90
39099;DHT22;24844;52.380;7.018;2023-08-07T12:49:23;20.40;99.90
39099;DHT22;24844;52.380;7.018;2023-08-07T12:51:49;20.60;99.90
39099;DHT22;24844;52.380;7.018;2023-08-07T12:54:15;20.70;99.90
39099;DHT22;24844;52.380;7.018;2023-08-07T12:56:40;20.90;99.90
39099;DHT22;24844;52.380;7.018;2023-08-07T12:59:06;20.60;99.90
39099;DHT22;24844;52.380;7.018;2023-08-07T13:01:32;20.60;99.90
39099;DHT22;24844;52.380;7.018;2023-08-07T13:03:58;20.50;99.90
39099;DHT22;24844;52.380;7.018;2023-08-07T13:06:23;20.70;99.90
39099;DHT22;24844;52.380;7.018;2023-08-07T13:08:49;20.60;99.90
39099;DHT22;24844;52.380;7.018;2023-08-07T13:11:14;20.70;99.90
39099;DHT22;24844;52.380;7.018;2023-08-07T13:13:40;20.50;99.90
39099;DHT22;24844;52.380;7.018;2023-08-07T13:16:05;20.40;99.90
39099;DHT22;24844;52.380;7.018;2023-08-07T13:18:31;20.40;99.90
39099;DHT22;24844;52.380;7.018;2023-08-07T13:20:57;20.50;99.90
39099;DHT22;24844;52.380;7.018;2023-08-07T13:23:22;20.10;99.90
39099;DHT22;24844;52.380;7.018;2023-08-07T13:25:48;20.10;99.90
39099;DHT22;24844;52.380;7.018;2023-08-07T13:28:13;20.00;99.90
39099;DHT22;24844;52.380;7.018;2023-08-07T13:30:39;19.80;99.90
39099;DHT22;24844;52.380;7.018;2023-08-07T13:33:05;19.80;99.90
39099;DHT22;24844;52.380;7.018;2023-08-07T13:35:31;19.60;99.90
39099;DHT22;24844;52.380;7.018;2023-08-07T13:37:58;19.60;99.90
39099;DHT22;24844;52.380;7.018;2023-08-07T13:40:23;19.60;99.90
39099;DHT22;24844;52.380;7.018;2023-08-07T13:42:49;19.70;99.90
39099;DHT22;24844;52.380;7.018;2023-08-07T13:45:15;19.60;99.90
39099;DHT22;24844;52.380;7.018;2023-08-07T13:47:40;19.40;99.90
39099;DHT22;24844;52.380;7.018;2023-08-07T13:50:06;19.30;99.90
39099;DHT22;24844;52.380;7.018;2023-08-07T13:52:33;19.50;99.90
39099;DHT22;24844;52.380;7.018;2023-08-07T13:54:59;19.60;99.90
39099;DHT22;24844;52.380;7.018;2023-08-07T13:57:25;19.60;99.90
39099;DHT22;24844;52.380;7.018;2023-08-07T13:59:50;19.90;99.90
39099;DHT22;24844;52.380;7.018;2023-08-07T14:02:16;19.80;99.90
39099;DHT22;24844;52.380;7.018;2023-08-07T14:04:41;19.80;99.90
39099;DHT22;24844;52.380;7.018;2023-08-07T14:07:10;19.80;99.90
39099;DHT22;24844;52.380;7.018;2023-08-07T14:09:36;19.60;99.90
39099;DHT22;24844;52.380;7.018;2023-08-07T14:12:03;19.90;99.90
39099;DHT22;24844;52.380;7.018;2023-08-07T14:14:28;19.60;99.90
39099;DHT22;24844;52.380;7.018;2023-08-07T14:16:54;19.70;99.90
39099;DHT22;24844;52.380;7.018;2023-08-07T14:19:23;19.60;99.90
39099;DHT22;24844;52.380;7.018;2023-08-07T14:21:49;19.40;99.90
39099;DHT22;24844;52.380;7.018;2023-08-07T14:24:14;19.20;99.90
39099;DHT22;24844;52.380;7.018;2023-08-07T14:26:41;18.90;99.90
39099;DHT22;24844;52.380;7.018;2023-08-07T14:29:07;18.90;99.90
39099;DHT22;24844;52.380;7.018;2023-08-07T14:31:32;18.10;99.90
39099;DHT22;24844;52.380;7.018;2023-08-07T14:33:58;18.30;99.90
39099;DHT22;24844;52.380;7.018;2023-08-07T14:36:24;18.10;99.90
39099;DHT22;24844;52.380;7.018;2023-08-07T14:38:49;17.80;99.90
39099;DHT22;24844;52.380;7.018;2023-08-07T14:41:15;17.40;99.90
39099;DHT22;24844;52.380;7.018;2023-08-07T14:43:41;17.30;99.90
39099;DHT22;24844;52.380;7.018;2023-08-07T14:46:06;17.20;99.90
39099;DHT22;24844;52.380;7.018;2023-08-07T14:48:32;17.20;99.90
39099;DHT22;24844;52.380;7.018;2023-08-07T14:50:57;17.20;99.90
39099;DHT22;24844;52.380;7.018;2023-08-07T14:53:23;17.20;99.90
39099;DHT22;24844;52.380;7.018;2023-08-07T14:55:50;17.10;99.90
39099;DHT22;24844;52.380;7.018;2023-08-07T14:58:16;17.30;99.90
39099;DHT22;24844;52.380;7.018;2023-08-07T15:00:42;17.10;99.90
39099;DHT22;24844;52.380;7.018;2023-08-07T15:03:07;17.10;99.90
39099;DHT22;24844;52.380;7.018;2023-08-07T15:05:33;17.20;99.90
39099;DHT22;24844;52.380;7.018;2023-08-07T15:08:00;17.20;99.90
39099;DHT22;24844;52.380;7.018;2023-08-07T15:10:26;17.40;99.90
39099;DHT22;24844;52.380;7.018;2023-08-07T15:12:51;17.50;99.90
39099;DHT22;24844;52.380;7.018;2023-08-07T15:15:17;17.50;99.90
39099;DHT22;24844;52.380;7.018;2023-08-07T15:17:42;17.60;99.90
39099;DHT22;24844;52.380;7.018;2023-08-07T15:20:08;18.00;99.90
39099;DHT22;24844;52.380;7.018;2023-08-07T15:22:34;18.00;99.90
39099;DHT22;24844;52.380;7.018;2023-08-07T15:25:00;18.20;99.90
39099;DHT22;24844;52.380;7.018;2023-08-07T15:27:25;18.40;99.90
39099;DHT22;24844;52.380;7.018;2023-08-07T15:29:51;18.70;99.90
39099;DHT22;24844;52.380;7.018;2023-08-07T15:32:16;18.50;99.90
39099;DHT22;24844;52.380;7.018;2023-08-07T15:34:45;18.40;99.90
39099;DHT22;24844;52.380;7.018;2023-08-07T15:37:11;18.60;99.90
39099;DHT22;24844;52.380;7.018;2023-08-07T15:39:37;18.70;99.90